Terminal Aerodrome Forecast
Issued by NWS Paducah, KY

Home | Current Version | Previous Version | Graphics & Text | Print | Product List | Glossary On
Versions: 1 2 3 4 5 6 7 8 9 10 11 12 13 14 15 16 17 18 19 20 21 22
000
FTUS43 KPAH 281152 AAA
TAFEVV
TAF AMD
KEVV 281152Z 2812/2912 15002KT 1/4SM FG VV001
     FM281330 18010KT P6SM BKN015
     FM282000 17006KT P6SM SKC=

USA.gov is the U.S. government's official web portal to all federal, state and local government web resources and services.